CheckWX is a tool to help pilots better visualize weather data.  It is not intended as a substitute for an official pre-flight weather briefing.

15:18:31 UTC

KDAL TAF
Dallas Love Field Airport
Dallas, Texas, USA
KDAL 281503Z 2815/2912 28014G24KT P6SM SCT150 BKN250 TEMPO 2815/2816 -RA BKN080 FM282300 25008KT P6SM SKC FM290600 36009KT P6SM FEW250

Mar-28@
15:00 UTC

Mar-28 @ 15:00 UTC

Mar-28@
23:00 UTC

Mar-28 @ 23:00 UTC

TAF KDAL 281503Z 2815/2912 28014G24KT P6SM SCT150 BKN250
Wind
  • 280° at 14 KTS
  • {Gusting to 24 KTS
Cloud Levels
  • Scattered at 15,000' AGL
  • Broken at 25,000' AGL

Mar-28@
15:00 UTC

Mar-28 @ 15:00 UTC

Mar-28@
16:00 UTC

Mar-28 @ 16:00 UTC

TEMPO 2815/2816 -RA BKN080

Temporary

Temporary Changes expected for less than half the time period

Conditions
Light Rain
Cloud Levels
  • Broken at 8,000' AGL

Mar-28@
23:00 UTC

Mar-28 @ 23:00 UTC

Mar-29@
06:00 UTC

Mar-29 @ 06:00 UTC

FM282300 25008KT P6SM SKC

From

From Standard forecast or significant change

Wind
  • 250° at 8 KTS
Cloud Levels
  • Clear skies

Mar-29@
06:00 UTC

Mar-29 @ 06:00 UTC

Mar-29@
12:00 UTC

Mar-29 @ 12:00 UTC

FM290600 36009KT P6SM FEW250

From

From Standard forecast or significant change

Wind
  • 360° at 9 KTS
Cloud Levels
  • Few at 25,000' AGL